createdAt,value
2023-04-25T00:00:15.351Z,10.00
2023-04-25T00:02:42.714Z,10.02
2023-04-25T00:05:10.261Z,9.90
2023-04-25T00:07:36.892Z,9.92
2023-04-25T00:10:04.617Z,9.81
2023-04-25T00:12:31.197Z,9.81
2023-04-25T00:15:00.984Z,9.76
2023-04-25T00:17:27.910Z,9.78
2023-04-25T00:19:54.553Z,9.82
2023-04-25T00:22:22.117Z,9.77
2023-04-25T00:24:48.826Z,9.79
2023-04-25T00:27:15.408Z,9.81
2023-04-25T00:29:41.922Z,9.90
2023-04-25T00:32:08.550Z,9.88
2023-04-25T00:34:36.150Z,9.83
2023-04-25T00:37:03.264Z,9.96
2023-04-25T00:39:29.878Z,9.90
2023-04-25T00:41:56.592Z,9.88
2023-04-25T00:44:23.401Z,9.85
2023-04-25T00:46:52.507Z,9.83
2023-04-25T00:49:19.023Z,9.76
2023-04-25T00:51:45.805Z,9.88
2023-04-25T00:54:13.652Z,9.76
2023-04-25T00:56:40.718Z,9.68
2023-04-25T00:59:07.554Z,9.70
2023-04-25T01:01:34.459Z,9.69
2023-04-25T01:04:02.088Z,9.65
2023-04-25T01:06:28.673Z,9.52
2023-04-25T01:08:55.455Z,9.44
2023-04-25T01:11:21.988Z,9.56
2023-04-25T01:13:48.914Z,9.51
2023-04-25T01:16:16.143Z,9.38
2023-04-25T01:18:43.597Z,9.30
2023-04-25T01:21:11.826Z,9.30
2023-04-25T01:23:41.001Z,9.26
2023-04-25T01:26:09.742Z,9.37
2023-04-25T01:28:36.754Z,9.28
2023-04-25T01:31:03.863Z,9.29
2023-04-25T01:33:30.721Z,9.30
2023-04-25T01:35:57.181Z,9.31
2023-04-25T01:38:23.806Z,9.18
2023-04-25T01:40:52.198Z,9.26
2023-04-25T01:43:19.002Z,9.32
2023-04-25T01:45:45.742Z,9.18
2023-04-25T01:48:14.124Z,9.22
2023-04-25T01:50:41.592Z,9.29
2023-04-25T01:53:10.429Z,9.32
2023-04-25T01:55:36.931Z,9.17
2023-04-25T01:58:04.746Z,9.09
2023-04-25T02:00:31.303Z,9.05
2023-04-25T02:03:00.708Z,8.80
2023-04-25T02:05:27.273Z,8.80
2023-04-25T02:07:53.789Z,8.78
2023-04-25T02:10:20.498Z,8.58
2023-04-25T02:12:46.926Z,8.59
2023-04-25T02:15:13.365Z,8.61
2023-04-25T02:17:40.221Z,8.69
2023-04-25T02:20:07.288Z,8.73
2023-04-25T02:22:35.030Z,8.69
2023-04-25T02:25:01.526Z,8.84
2023-04-25T02:27:28.045Z,8.85
2023-04-25T02:29:54.530Z,8.82
2023-04-25T02:32:21.486Z,8.92
2023-04-25T02:34:49.010Z,8.98
2023-04-25T02:37:15.639Z,8.92
2023-04-25T02:39:42.060Z,8.95
2023-04-25T02:42:08.578Z,8.90
2023-04-25T02:44:35.081Z,8.73
2023-04-25T02:47:01.617Z,8.85
2023-04-25T02:49:28.210Z,8.66
2023-04-25T02:51:54.683Z,8.45
2023-04-25T02:54:21.163Z,8.52
2023-04-25T02:56:47.653Z,8.50
2023-04-25T02:59:14.143Z,8.45
2023-04-25T03:01:40.580Z,8.54
2023-04-25T03:04:07.897Z,8.45
2023-04-25T03:06:34.347Z,8.40
2023-04-25T03:09:00.844Z,8.42
2023-04-25T03:11:28.289Z,8.35
2023-04-25T03:13:54.784Z,8.63
2023-04-25T03:16:21.401Z,8.35
2023-04-25T03:18:47.950Z,8.25
2023-04-25T03:21:14.435Z,8.28
2023-04-25T03:23:41.032Z,8.44
2023-04-25T03:26:07.548Z,8.42
2023-04-25T03:28:33.997Z,8.48
2023-04-25T03:31:00.529Z,8.35
2023-04-25T03:33:27.052Z,8.39
2023-04-25T03:35:53.989Z,8.63
2023-04-25T03:38:20.542Z,8.48
2023-04-25T03:40:47.098Z,8.53
2023-04-25T03:43:13.558Z,8.52
2023-04-25T03:45:40.478Z,8.66
2023-04-25T03:48:07.039Z,8.67
2023-04-25T03:50:33.661Z,8.75
2023-04-25T03:53:00.217Z,8.65
2023-04-25T03:55:26.693Z,8.68
2023-04-25T03:57:53.254Z,8.51
2023-04-25T04:00:19.730Z,8.55
2023-04-25T04:02:46.630Z,8.38
2023-04-25T04:05:13.883Z,8.66
2023-04-25T04:07:41.215Z,8.76
2023-04-25T04:10:08.631Z,8.49
2023-04-25T04:12:35.188Z,8.77
2023-04-25T04:15:04.534Z,8.58
2023-04-25T04:17:31.354Z,8.62
2023-04-25T04:19:57.947Z,8.59
2023-04-25T04:22:25.037Z,8.60
2023-04-25T04:24:51.908Z,8.47
2023-04-25T04:27:23.737Z,8.51
2023-04-25T04:29:52.509Z,8.50
2023-04-25T04:32:19.179Z,8.44
2023-04-25T04:34:45.822Z,8.49
2023-04-25T04:37:14.425Z,8.44
2023-04-25T04:39:41.030Z,8.35
2023-04-25T04:42:08.000Z,8.28
2023-04-25T04:44:35.410Z,8.41
2023-04-25T04:47:03.015Z,8.65
2023-04-25T04:49:29.668Z,8.32
2023-04-25T04:51:58.411Z,8.32
2023-04-25T04:54:26.574Z,7.99
2023-04-25T04:56:53.540Z,7.88
2023-04-25T04:59:20.057Z,7.74
2023-04-25T05:01:47.809Z,7.65
2023-04-25T05:04:14.414Z,7.67
2023-04-25T05:06:41.488Z,7.67
2023-04-25T05:09:08.035Z,7.70
2023-04-25T05:11:34.556Z,7.71
2023-04-25T05:14:01.102Z,7.82
2023-04-25T05:16:29.091Z,7.82
2023-04-25T05:18:55.726Z,7.81
2023-04-25T05:21:22.481Z,7.84
2023-04-25T05:23:49.051Z,7.90
2023-04-25T05:26:15.832Z,7.90
2023-04-25T05:28:43.208Z,8.06
2023-04-25T05:31:12.780Z,8.05
2023-04-25T05:33:39.355Z,8.14
2023-04-25T05:36:06.391Z,8.17
2023-04-25T05:38:34.812Z,8.28
2023-04-25T05:41:01.750Z,8.25
2023-04-25T05:43:28.316Z,8.36
2023-04-25T05:45:54.983Z,8.35
2023-04-25T05:48:21.511Z,8.27
2023-04-25T05:50:48.130Z,8.36
2023-04-25T05:53:14.602Z,8.37
2023-04-25T05:55:41.046Z,8.35
2023-04-25T05:58:08.132Z,8.27
2023-04-25T06:00:34.813Z,8.23
2023-04-25T06:03:02.173Z,8.15
2023-04-25T06:05:28.980Z,8.16
2023-04-25T06:07:55.600Z,8.24
2023-04-25T06:10:23.551Z,8.33
2023-04-25T06:12:50.442Z,8.45
2023-04-25T06:15:27.991Z,8.38
2023-04-25T06:17:55.528Z,8.37
2023-04-25T06:20:25.613Z,8.39
2023-04-25T06:22:55.403Z,8.40
2023-04-25T06:25:22.178Z,8.33
2023-04-25T06:27:48.805Z,8.24
2023-04-25T06:30:16.230Z,8.21
2023-04-25T06:32:42.897Z,8.29
2023-04-25T06:35:09.876Z,8.31
2023-04-25T06:37:36.404Z,8.34
2023-04-25T06:40:03.505Z,8.38
2023-04-25T06:42:30.025Z,8.40
2023-04-25T06:44:56.861Z,8.50
2023-04-25T06:47:23.405Z,8.54
2023-04-25T06:49:50.392Z,8.57
2023-04-25T06:52:18.927Z,8.59
2023-04-25T06:54:46.165Z,8.53
2023-04-25T06:57:12.935Z,8.55
2023-04-25T06:59:39.613Z,8.60
2023-04-25T07:02:07.095Z,8.59
2023-04-25T07:04:33.908Z,8.70
2023-04-25T07:07:01.949Z,8.82
2023-04-25T07:09:28.430Z,8.76
2023-04-25T07:11:54.960Z,8.75
2023-04-25T07:14:21.466Z,8.72
2023-04-25T07:16:48.392Z,8.69
2023-04-25T07:19:15.077Z,8.74
2023-04-25T07:21:41.533Z,8.77
2023-04-25T07:24:08.061Z,8.79
2023-04-25T07:26:34.532Z,8.71
2023-04-25T07:29:00.996Z,8.74
2023-04-25T07:31:27.874Z,8.62
2023-04-25T07:33:54.385Z,8.65
2023-04-25T07:36:21.971Z,8.77
2023-04-25T07:38:48.624Z,8.81
2023-04-25T07:41:15.293Z,8.83
2023-04-25T07:43:41.818Z,8.87
2023-04-25T07:46:08.345Z,8.88
2023-04-25T07:48:34.863Z,8.96
2023-04-25T07:51:01.314Z,9.01
2023-04-25T07:53:27.749Z,8.99
2023-04-25T07:55:54.281Z,9.01
2023-04-25T07:58:22.907Z,9.08
2023-04-25T08:00:50.030Z,9.36
2023-04-25T08:03:16.741Z,9.52
2023-04-25T08:05:43.952Z,9.70
2023-04-25T08:08:10.651Z,9.80
2023-04-25T08:10:37.237Z,9.86
2023-04-25T08:13:04.008Z,10.00
2023-04-25T08:15:30.784Z,10.24
2023-04-25T08:17:57.466Z,10.16
2023-04-25T08:20:24.085Z,10.19
2023-04-25T08:22:50.690Z,10.07
2023-04-25T08:25:17.160Z,10.12
2023-04-25T08:27:44.381Z,10.01
2023-04-25T08:30:11.231Z,9.86
2023-04-25T08:32:39.830Z,9.61
2023-04-25T08:35:07.187Z,9.68
2023-04-25T08:37:33.721Z,9.47
2023-04-25T08:40:00.223Z,9.51
2023-04-25T08:42:28.392Z,9.74
2023-04-25T08:44:56.229Z,9.80
2023-04-25T08:47:23.810Z,9.83
2023-04-25T08:49:51.834Z,9.77
2023-04-25T08:52:23.245Z,9.70
2023-04-25T08:54:50.549Z,9.74
2023-04-25T08:57:18.266Z,9.90
2023-04-25T08:59:46.933Z,9.99
2023-04-25T09:02:16.850Z,10.19
2023-04-25T09:04:45.156Z,10.31
2023-04-25T09:07:11.740Z,10.43
2023-04-25T09:09:38.288Z,10.27
2023-04-25T09:12:06.197Z,10.27
2023-04-25T09:14:32.966Z,10.49
2023-04-25T09:17:01.910Z,10.68
2023-04-25T09:19:41.090Z,10.81
2023-04-25T09:22:09.047Z,11.00
2023-04-25T09:24:47.153Z,11.51
2023-04-25T09:27:19.248Z,11.61
2023-04-25T09:29:45.770Z,12.02
2023-04-25T09:32:19.012Z,12.66
2023-04-25T09:34:49.370Z,12.95
2023-04-25T09:37:30.572Z,13.36
2023-04-25T09:40:04.124Z,13.32
2023-04-25T09:42:32.842Z,13.02
2023-04-25T09:45:00.058Z,12.87
2023-04-25T09:47:27.817Z,12.76
2023-04-25T09:49:56.023Z,12.42
2023-04-25T09:52:25.782Z,12.28
2023-04-25T09:54:53.394Z,12.50
2023-04-25T09:57:24.860Z,12.59
2023-04-25T09:59:56.026Z,12.68
2023-04-25T10:02:26.148Z,12.94
2023-04-25T10:04:56.218Z,12.92
2023-04-25T10:07:27.208Z,12.79
2023-04-25T10:10:02.766Z,12.96
2023-04-25T10:12:29.613Z,13.06
2023-04-25T10:14:56.314Z,13.28
2023-04-25T10:17:23.584Z,13.48
2023-04-25T10:19:50.165Z,13.73
2023-04-25T10:22:31.570Z,13.67
2023-04-25T10:24:58.595Z,13.65
2023-04-25T10:27:25.188Z,14.03
2023-04-25T10:30:05.481Z,14.02
2023-04-25T10:32:35.948Z,14.49
2023-04-25T10:35:20.145Z,15.05
2023-04-25T10:38:06.394Z,16.88
2023-04-25T10:40:34.451Z,17.25
2023-04-25T10:43:31.859Z,18.35
2023-04-25T10:46:00.417Z,18.58
2023-04-25T10:48:35.829Z,19.39
2023-04-25T10:51:13.110Z,20.38
2023-04-25T10:53:39.554Z,21.30
2023-04-25T10:56:19.760Z,20.24
2023-04-25T10:58:47.706Z,20.06
2023-04-25T11:01:20.955Z,19.33
2023-04-25T11:03:51.498Z,18.83
2023-04-25T11:06:33.443Z,18.07
2023-04-25T11:09:02.506Z,17.53
2023-04-25T11:11:30.400Z,17.04
2023-04-25T11:13:56.890Z,17.03
2023-04-25T11:16:28.444Z,17.87
2023-04-25T11:18:58.396Z,18.64
2023-04-25T11:21:27.446Z,18.12
2023-04-25T11:23:55.669Z,19.46
2023-04-25T11:26:23.295Z,19.59
2023-04-25T11:28:50.461Z,20.00
2023-04-25T11:31:16.979Z,19.38
2023-04-25T11:33:43.664Z,20.16
2023-04-25T11:36:11.088Z,20.80
2023-04-25T11:38:37.558Z,19.92
2023-04-25T11:41:04.124Z,20.42
2023-04-25T11:43:30.789Z,20.52
2023-04-25T11:45:57.585Z,20.69
2023-04-25T11:48:25.892Z,21.17
2023-04-25T11:50:52.719Z,21.40
2023-04-25T11:53:19.619Z,22.16
2023-04-25T11:55:46.339Z,21.83
2023-04-25T11:58:14.801Z,21.93
2023-04-25T12:00:50.411Z,22.11
2023-04-25T12:03:19.429Z,21.40
2023-04-25T12:05:47.426Z,20.61
2023-04-25T12:08:15.662Z,19.73
2023-04-25T12:10:44.262Z,19.27
2023-04-25T12:13:25.683Z,18.65
2023-04-25T12:15:52.947Z,18.32
2023-04-25T12:18:25.232Z,18.06
2023-04-25T12:20:53.588Z,17.66
2023-04-25T12:23:27.632Z,17.65
2023-04-25T12:25:54.201Z,17.18
2023-04-25T12:28:24.743Z,16.32
2023-04-25T12:31:01.773Z,15.69
2023-04-25T12:33:30.621Z,14.77
2023-04-25T12:35:58.606Z,14.18
2023-04-25T12:38:30.012Z,13.40
2023-04-25T12:40:56.975Z,14.01
2023-04-25T12:43:24.257Z,15.55
2023-04-25T12:45:54.913Z,16.98
2023-04-25T12:48:22.276Z,17.26
2023-04-25T12:50:50.402Z,18.10
2023-04-25T12:53:21.470Z,18.66
2023-04-25T12:55:48.535Z,18.61
2023-04-25T12:58:16.190Z,18.15
2023-04-25T13:00:44.170Z,17.55
2023-04-25T13:03:14.723Z,17.60
2023-04-25T13:05:42.104Z,17.94
2023-04-25T13:08:09.017Z,17.21
2023-04-25T13:10:37.044Z,16.93
2023-04-25T13:13:03.710Z,16.36
2023-04-25T13:15:30.363Z,16.14
2023-04-25T13:17:57.204Z,16.26
2023-04-25T13:20:23.945Z,17.52
2023-04-25T13:22:50.880Z,16.65
2023-04-25T13:25:17.750Z,17.14
2023-04-25T13:27:45.726Z,18.14
2023-04-25T13:30:12.500Z,18.70
2023-04-25T13:32:39.491Z,18.63
2023-04-25T13:35:10.458Z,19.00
2023-04-25T13:37:37.771Z,18.68
2023-04-25T13:40:10.857Z,18.32
2023-04-25T13:42:41.219Z,17.73
2023-04-25T13:45:08.621Z,18.32
2023-04-25T13:47:35.542Z,18.24
2023-04-25T13:50:04.105Z,17.49
2023-04-25T13:52:30.717Z,17.54
2023-04-25T13:54:57.208Z,18.27
2023-04-25T13:57:23.677Z,18.52
2023-04-25T13:59:50.179Z,18.53
2023-04-25T14:02:16.769Z,18.04
2023-04-25T14:04:43.705Z,17.42
2023-04-25T14:07:11.882Z,16.94
2023-04-25T14:09:38.356Z,16.59
2023-04-25T14:12:04.999Z,16.23
2023-04-25T14:14:31.484Z,15.82
2023-04-25T14:16:58.333Z,16.03
2023-04-25T14:19:25.631Z,16.86
2023-04-25T14:21:52.229Z,17.50
2023-04-25T14:24:18.739Z,17.65
2023-04-25T14:26:45.610Z,17.69
2023-04-25T14:29:15.256Z,18.00
2023-04-25T14:31:42.315Z,18.14
2023-04-25T14:34:09.134Z,18.40
2023-04-25T14:36:36.817Z,18.04
2023-04-25T14:39:04.032Z,17.27
2023-04-25T14:41:30.476Z,16.92
2023-04-25T14:43:58.087Z,16.66
2023-04-25T14:46:24.825Z,16.64
2023-04-25T14:48:52.169Z,16.39
2023-04-25T14:51:18.679Z,16.17
2023-04-25T14:53:45.561Z,15.66
2023-04-25T14:56:12.156Z,15.04
2023-04-25T14:58:39.874Z,14.78
2023-04-25T15:01:07.773Z,14.51
2023-04-25T15:03:34.500Z,14.15
2023-04-25T15:06:01.226Z,14.25
2023-04-25T15:08:27.670Z,14.13
2023-04-25T15:10:54.383Z,13.79
2023-04-25T15:13:21.289Z,13.63
2023-04-25T15:15:52.091Z,13.28
2023-04-25T15:18:23.695Z,13.15
2023-04-25T15:20:51.846Z,12.85
2023-04-25T15:23:19.509Z,12.69
2023-04-25T15:25:46.762Z,12.56
2023-04-25T15:28:15.937Z,12.28
2023-04-25T15:30:43.221Z,12.38
2023-04-25T15:33:09.677Z,12.38
2023-04-25T15:35:36.352Z,12.46
2023-04-25T15:38:02.866Z,12.45
2023-04-25T15:40:29.343Z,12.40
2023-04-25T15:42:55.892Z,12.29
2023-04-25T15:45:26.041Z,12.38
2023-04-25T15:47:55.831Z,12.55
2023-04-25T15:50:22.890Z,12.48
2023-04-25T15:52:50.911Z,12.57
2023-04-25T15:55:19.043Z,12.63
2023-04-25T15:57:45.514Z,12.68
2023-04-25T16:00:13.287Z,12.82
2023-04-25T16:02:41.364Z,12.73
2023-04-25T16:05:09.287Z,12.84
2023-04-25T16:07:36.271Z,12.81
2023-04-25T16:10:03.086Z,12.58
2023-04-25T16:12:31.092Z,12.54
2023-04-25T16:14:58.230Z,12.41
2023-04-25T16:17:25.562Z,12.34
2023-04-25T16:19:52.217Z,12.38
2023-04-25T16:22:18.731Z,12.36
2023-04-25T16:24:45.364Z,12.33
2023-04-25T16:27:12.313Z,12.37
2023-04-25T16:29:39.412Z,12.38
2023-04-25T16:32:06.138Z,12.38
2023-04-25T16:34:32.902Z,12.55
2023-04-25T16:36:59.909Z,12.56
2023-04-25T16:39:26.427Z,12.61
2023-04-25T16:41:53.374Z,12.79
2023-04-25T16:44:19.899Z,12.71
2023-04-25T16:46:46.415Z,12.91
2023-04-25T16:49:12.991Z,12.89
2023-04-25T16:51:39.561Z,12.77
2023-04-25T16:54:06.441Z,12.71
2023-04-25T16:56:32.880Z,12.65
2023-04-25T16:58:59.384Z,12.64
2023-04-25T17:01:25.913Z,12.64
2023-04-25T17:03:52.600Z,12.66
2023-04-25T17:06:19.261Z,12.55
2023-04-25T17:08:45.860Z,12.60
2023-04-25T17:11:12.522Z,12.71
2023-04-25T17:13:39.084Z,12.77
2023-04-25T17:16:06.356Z,12.71
2023-04-25T17:18:32.903Z,12.83
2023-04-25T17:20:59.528Z,12.93
2023-04-25T17:23:26.271Z,12.90
2023-04-25T17:25:54.291Z,12.94
2023-04-25T17:28:20.846Z,12.95
2023-04-25T17:30:47.475Z,12.85
2023-04-25T17:33:14.050Z,12.68
2023-04-25T17:35:40.699Z,12.60
2023-04-25T17:38:07.237Z,12.47
2023-04-25T17:40:33.685Z,12.35
2023-04-25T17:43:00.189Z,12.32
2023-04-25T17:45:26.841Z,11.95
2023-04-25T17:47:53.517Z,11.88
2023-04-25T17:50:20.697Z,11.53
2023-04-25T17:52:48.354Z,11.25
2023-04-25T17:55:15.194Z,10.95
2023-04-25T17:57:41.698Z,10.92
2023-04-25T18:00:09.345Z,10.99
2023-04-25T18:02:36.699Z,10.84
2023-04-25T18:05:09.894Z,10.88
2023-04-25T18:07:37.106Z,10.79
2023-04-25T18:10:06.848Z,10.43
2023-04-25T18:12:34.119Z,10.64
2023-04-25T18:15:01.818Z,10.61
2023-04-25T18:17:28.448Z,10.65
2023-04-25T18:19:55.439Z,10.71
2023-04-25T18:22:22.298Z,10.89
2023-04-25T18:24:50.012Z,10.88
2023-04-25T18:27:16.654Z,10.74
2023-04-25T18:29:45.329Z,10.69
2023-04-25T18:32:12.266Z,10.51
2023-04-25T18:34:41.497Z,10.65
2023-04-25T18:37:08.050Z,10.48
2023-04-25T18:39:34.567Z,10.56
2023-04-25T18:42:06.694Z,10.38
2023-04-25T18:44:36.556Z,10.38
2023-04-25T18:47:03.105Z,10.52
2023-04-25T18:49:29.605Z,10.39
2023-04-25T18:51:57.472Z,10.25
2023-04-25T18:54:23.979Z,10.01
2023-04-25T18:56:50.509Z,10.14
2023-04-25T18:59:18.050Z,10.25
2023-04-25T19:01:44.899Z,10.25
2023-04-25T19:04:11.579Z,10.27
2023-04-25T19:06:38.237Z,10.33
2023-04-25T19:09:04.756Z,10.30
2023-04-25T19:11:31.286Z,10.10
2023-04-25T19:13:57.837Z,10.14
2023-04-25T19:16:26.400Z,10.16
2023-04-25T19:18:55.295Z,10.10
2023-04-25T19:21:22.644Z,10.14
2023-04-25T19:23:49.230Z,10.13
2023-04-25T19:26:15.702Z,10.17
2023-04-25T19:28:44.755Z,10.04
2023-04-25T19:31:12.991Z,9.99
2023-04-25T19:33:39.592Z,9.94
2023-04-25T19:36:06.139Z,9.87
2023-04-25T19:38:32.674Z,10.07
2023-04-25T19:40:59.241Z,10.16
2023-04-25T19:43:26.137Z,10.29
2023-04-25T19:45:53.964Z,10.33
2023-04-25T19:48:21.128Z,10.35
2023-04-25T19:50:47.639Z,10.23
2023-04-25T19:53:14.168Z,10.09
2023-04-25T19:55:41.234Z,10.21
2023-04-25T19:58:08.082Z,10.15
2023-04-25T20:00:34.596Z,10.07
2023-04-25T20:03:02.152Z,9.92
2023-04-25T20:05:28.917Z,10.17
2023-04-25T20:07:55.422Z,9.97
2023-04-25T20:10:22.285Z,9.84
2023-04-25T20:12:49.417Z,9.93
2023-04-25T20:15:17.878Z,9.68
2023-04-25T20:17:44.436Z,9.76
2023-04-25T20:20:11.817Z,9.80
2023-04-25T20:22:40.420Z,9.77
2023-04-25T20:25:09.167Z,9.92
2023-04-25T20:27:38.019Z,9.95
2023-04-25T20:30:08.637Z,9.97
2023-04-25T20:32:36.022Z,9.99
2023-04-25T20:35:03.953Z,9.97
2023-04-25T20:37:33.623Z,9.97
2023-04-25T20:40:00.989Z,9.95
2023-04-25T20:42:27.608Z,9.89
2023-04-25T20:44:54.691Z,9.73
2023-04-25T20:47:21.896Z,9.78
2023-04-25T20:49:48.529Z,9.77
2023-04-25T20:52:16.087Z,9.86
2023-04-25T20:54:42.836Z,9.80
2023-04-25T20:57:09.483Z,9.74
2023-04-25T20:59:36.326Z,9.80
2023-04-25T21:02:02.927Z,9.56
2023-04-25T21:04:29.493Z,9.70
2023-04-25T21:06:55.990Z,9.95
2023-04-25T21:09:22.429Z,9.77
2023-04-25T21:11:48.914Z,9.40
2023-04-25T21:14:16.489Z,9.54
2023-04-25T21:16:43.046Z,9.42
2023-04-25T21:19:09.639Z,9.35
2023-04-25T21:21:36.181Z,9.40
2023-04-25T21:24:02.932Z,9.29
2023-04-25T21:26:29.431Z,9.20
2023-04-25T21:28:55.919Z,9.21
2023-04-25T21:31:22.547Z,9.14
2023-04-25T21:33:49.074Z,9.26
2023-04-25T21:36:15.904Z,9.11
2023-04-25T21:38:42.424Z,9.21
2023-04-25T21:41:08.983Z,9.17
2023-04-25T21:43:36.719Z,9.28
2023-04-25T21:48:32.612Z,8.94
2023-04-25T21:50:59.245Z,8.87
2023-04-25T21:53:26.792Z,8.94
2023-04-25T21:55:53.412Z,9.16
2023-04-25T21:58:19.870Z,9.08
2023-04-25T22:00:46.358Z,8.89
2023-04-25T22:03:16.097Z,8.80
2023-04-25T22:05:42.834Z,8.72
2023-04-25T22:08:09.661Z,8.68
2023-04-25T22:10:36.220Z,8.64
2023-04-25T22:13:02.739Z,8.69
2023-04-25T22:15:29.569Z,8.61
2023-04-25T22:17:56.116Z,8.67
2023-04-25T22:20:26.182Z,8.67
2023-04-25T22:22:54.505Z,8.66
2023-04-25T22:25:21.298Z,8.91
2023-04-25T22:27:48.240Z,8.81
2023-04-25T22:30:15.020Z,8.77
2023-04-25T22:32:42.012Z,8.74
2023-04-25T22:35:09.295Z,8.81
2023-04-25T22:37:36.178Z,8.91
2023-04-25T22:40:07.132Z,8.95
2023-04-25T22:42:40.278Z,8.73
2023-04-25T22:45:08.278Z,8.80
2023-04-25T22:47:38.733Z,8.88
2023-04-25T22:50:13.308Z,8.92
2023-04-25T22:52:40.563Z,8.86
2023-04-25T22:55:07.389Z,8.85
2023-04-25T22:57:36.901Z,8.81
2023-04-25T23:00:09.397Z,8.68
2023-04-25T23:02:36.096Z,8.67
2023-04-25T23:05:02.650Z,8.73
2023-04-25T23:07:29.190Z,8.41
2023-04-25T23:09:55.723Z,8.51
2023-04-25T23:12:22.770Z,8.41
2023-04-25T23:14:51.151Z,8.22
2023-04-25T23:17:17.661Z,8.42
2023-04-25T23:19:45.206Z,8.47
2023-04-25T23:22:11.772Z,8.48
2023-04-25T23:24:41.620Z,8.42
2023-04-25T23:27:08.171Z,8.54
2023-04-25T23:29:34.817Z,8.44
2023-04-25T23:32:04.489Z,8.53
2023-04-25T23:34:32.053Z,8.36
2023-04-25T23:37:01.246Z,8.26
2023-04-25T23:39:28.240Z,8.19
2023-04-25T23:41:55.034Z,8.02
2023-04-25T23:44:22.189Z,7.98
2023-04-25T23:46:49.611Z,7.96
2023-04-25T23:49:16.117Z,7.95
2023-04-25T23:51:43.077Z,7.90
2023-04-25T23:54:09.617Z,7.87
2023-04-25T23:56:36.202Z,7.82
2023-04-25T23:59:03.812Z,8.04
